createdAt,value
2018-06-24T00:01:47.636Z,12.30
2018-06-24T00:04:17.006Z,12.20
2018-06-24T00:06:46.379Z,12.30
2018-06-24T00:09:15.760Z,12.20
2018-06-24T00:11:45.120Z,12.20
2018-06-24T00:14:14.532Z,12.20
2018-06-24T00:16:43.841Z,12.10
2018-06-24T00:19:13.208Z,12.20
2018-06-24T00:21:42.569Z,12.10
2018-06-24T00:24:11.957Z,12.00
2018-06-24T00:26:41.339Z,11.90
2018-06-24T00:31:39.584Z,11.80
2018-06-24T00:34:08.940Z,11.70
2018-06-24T00:36:38.292Z,11.70
2018-06-24T00:39:08.871Z,11.50
2018-06-24T00:41:38.426Z,11.50
2018-06-24T00:44:07.863Z,11.50
2018-06-24T00:46:37.175Z,11.40
2018-06-24T00:49:06.553Z,11.50
2018-06-24T00:51:35.964Z,11.50
2018-06-24T00:54:05.333Z,11.40
2018-06-24T00:56:34.695Z,11.40
2018-06-24T00:59:04.175Z,11.30
2018-06-24T01:01:33.639Z,11.50
2018-06-24T01:04:03.439Z,11.40
2018-06-24T01:06:32.848Z,11.30
2018-06-24T01:09:02.232Z,11.30
2018-06-24T01:11:31.616Z,11.30
2018-06-24T01:14:01.025Z,11.40
2018-06-24T01:16:30.413Z,11.40
2018-06-24T01:18:59.791Z,11.30
2018-06-24T01:21:29.243Z,11.40
2018-06-24T01:23:58.589Z,11.50
2018-06-24T01:26:28.021Z,11.40
2018-06-24T01:28:57.372Z,11.40
2018-06-24T01:31:26.772Z,11.50
2018-06-24T01:33:56.204Z,11.60
2018-06-24T01:36:25.653Z,11.70
2018-06-24T01:38:55.004Z,11.70
2018-06-24T01:41:24.535Z,11.50
2018-06-24T01:43:53.895Z,11.50
2018-06-24T01:46:23.331Z,11.40
2018-06-24T01:48:52.711Z,11.40
2018-06-24T01:51:22.132Z,11.40
2018-06-24T01:53:51.488Z,11.40
2018-06-24T01:56:20.863Z,11.30
2018-06-24T01:58:50.251Z,11.30
2018-06-24T02:01:19.828Z,11.30
2018-06-24T02:03:49.631Z,11.40
2018-06-24T02:06:19.162Z,11.40
2018-06-24T02:08:48.571Z,11.50
2018-06-24T02:11:18.191Z,11.30
2018-06-24T02:13:47.563Z,11.30
2018-06-24T02:16:16.947Z,11.30
2018-06-24T02:21:15.363Z,11.30
2018-06-24T02:23:44.739Z,11.30
2018-06-24T02:26:14.114Z,11.30
2018-06-24T02:28:43.484Z,11.50
2018-06-24T02:31:12.874Z,11.50
2018-06-24T02:33:42.267Z,11.60
2018-06-24T02:36:11.648Z,11.60
2018-06-24T02:38:41.024Z,11.60
2018-06-24T02:41:10.569Z,11.60
2018-06-24T02:43:40.228Z,11.50
2018-06-24T02:48:38.655Z,11.50
2018-06-24T02:51:08.071Z,11.40
2018-06-24T02:53:37.527Z,11.50
2018-06-24T02:56:07.004Z,11.60
2018-06-24T02:58:36.384Z,11.60
2018-06-24T03:01:05.802Z,11.70
2018-06-24T03:03:35.243Z,11.60
2018-06-24T03:06:04.676Z,11.60
2018-06-24T03:08:34.084Z,11.50
2018-06-24T03:11:03.425Z,11.50
2018-06-24T03:13:32.846Z,11.40
2018-06-24T03:16:02.195Z,11.40
2018-06-24T03:18:31.619Z,11.40
2018-06-24T03:21:01.009Z,11.40
2018-06-24T03:23:30.420Z,11.40
2018-06-24T03:25:59.751Z,11.40
2018-06-24T03:28:29.142Z,11.40
2018-06-24T03:30:58.479Z,11.40
2018-06-24T03:33:27.841Z,11.40
2018-06-24T03:38:26.075Z,11.40
2018-06-24T03:40:55.582Z,11.40
2018-06-24T03:43:24.928Z,11.50
2018-06-24T03:45:54.336Z,11.40
2018-06-24T03:48:24.008Z,11.50
2018-06-24T03:50:53.412Z,11.50
2018-06-24T03:53:22.758Z,11.60
2018-06-24T03:55:52.184Z,11.70
2018-06-24T03:58:21.588Z,11.80
2018-06-24T04:00:50.996Z,11.80
2018-06-24T04:03:20.352Z,11.70
2018-06-24T04:05:49.775Z,11.60
2018-06-24T04:08:19.125Z,11.60
2018-06-24T04:10:49.631Z,11.70
2018-06-24T04:13:18.982Z,11.70
2018-06-24T04:15:48.364Z,11.70
2018-06-24T04:18:17.719Z,11.70
2018-06-24T04:20:47.120Z,11.70
2018-06-24T04:23:16.459Z,11.80
2018-06-24T04:25:45.840Z,11.90
2018-06-24T04:28:15.184Z,12.00
2018-06-24T04:30:44.562Z,12.10
2018-06-24T04:33:13.907Z,12.10
2018-06-24T04:35:43.251Z,12.10
2018-06-24T04:38:12.619Z,12.20
2018-06-24T04:40:42.088Z,12.30
2018-06-24T04:43:11.428Z,12.20
2018-06-24T04:45:40.824Z,12.20
2018-06-24T04:48:10.176Z,12.30
2018-06-24T04:50:39.560Z,12.40
2018-06-24T04:53:08.961Z,12.40
2018-06-24T04:55:38.338Z,12.30
2018-06-24T04:58:08.312Z,12.30
2018-06-24T05:00:37.959Z,12.30
2018-06-24T05:03:07.378Z,12.70
2018-06-24T05:05:36.805Z,12.60
2018-06-24T05:08:06.292Z,12.90
2018-06-24T05:10:35.746Z,12.90
2018-06-24T05:15:34.107Z,12.90
2018-06-24T05:18:03.462Z,12.90
2018-06-24T05:20:32.847Z,13.20
2018-06-24T05:23:02.211Z,13.50
2018-06-24T05:25:31.632Z,13.80
2018-06-24T05:28:01.060Z,13.90
2018-06-24T05:30:30.409Z,13.90
2018-06-24T05:32:59.798Z,14.10
2018-06-24T05:35:29.166Z,14.00
2018-06-24T05:37:58.600Z,13.60
2018-06-24T05:40:28.003Z,13.70
2018-06-24T05:42:57.420Z,13.80
2018-06-24T05:45:26.744Z,13.90
2018-06-24T05:47:56.243Z,13.80
2018-06-24T05:50:25.620Z,13.80
2018-06-24T05:52:54.979Z,13.90
2018-06-24T05:55:24.331Z,14.20
2018-06-24T05:57:53.681Z,14.50
2018-06-24T06:00:23.086Z,14.70
2018-06-24T06:02:52.482Z,14.50
2018-06-24T06:05:22.076Z,14.40
2018-06-24T06:07:51.451Z,14.60
2018-06-24T06:10:20.881Z,14.70
2018-06-24T06:12:50.227Z,14.60
2018-06-24T06:15:19.608Z,14.90
2018-06-24T06:17:48.968Z,15.20
2018-06-24T06:20:18.334Z,15.40
2018-06-24T06:22:47.690Z,15.20
2018-06-24T06:25:17.085Z,15.20
2018-06-24T06:27:46.436Z,15.10
2018-06-24T06:30:15.817Z,15.10
2018-06-24T06:32:45.194Z,15.60
2018-06-24T06:35:14.578Z,15.90
2018-06-24T06:37:43.968Z,16.00
2018-06-24T06:40:13.335Z,16.10
2018-06-24T06:42:42.731Z,16.40
2018-06-24T06:45:12.099Z,16.30
2018-06-24T06:47:41.519Z,16.60
2018-06-24T06:50:10.882Z,16.30
2018-06-24T06:52:40.263Z,16.60
2018-06-24T06:55:09.637Z,17.00
2018-06-24T06:57:39.011Z,17.10
2018-06-24T07:00:08.480Z,17.40
2018-06-24T07:05:06.744Z,17.10
2018-06-24T07:07:36.099Z,17.30
2018-06-24T07:10:05.720Z,17.40
2018-06-24T07:12:35.135Z,17.10
2018-06-24T07:15:04.911Z,17.20
2018-06-24T07:17:34.308Z,17.00
2018-06-24T07:20:03.696Z,16.70
2018-06-24T07:22:33.092Z,16.80
2018-06-24T07:25:02.432Z,16.70
2018-06-24T07:27:31.816Z,16.80
2018-06-24T07:30:01.150Z,17.10
2018-06-24T07:32:30.550Z,17.30
2018-06-24T07:34:59.875Z,17.30
2018-06-24T07:37:29.308Z,17.10
2018-06-24T07:39:58.729Z,17.70
2018-06-24T07:42:28.101Z,17.90
2018-06-24T07:44:57.460Z,18.20
2018-06-24T07:47:26.863Z,19.20
2018-06-24T07:49:56.183Z,19.70
2018-06-24T07:52:25.555Z,20.00
2018-06-24T07:54:54.906Z,19.90
2018-06-24T07:57:24.340Z,19.20
2018-06-24T07:59:53.712Z,18.50
2018-06-24T08:02:23.087Z,19.20
2018-06-24T08:04:52.421Z,20.10
2018-06-24T08:07:21.827Z,20.20
2018-06-24T08:09:51.175Z,20.20
2018-06-24T08:12:20.519Z,20.00
2018-06-24T08:14:49.872Z,19.80
2018-06-24T08:17:19.237Z,20.20
2018-06-24T08:19:48.559Z,20.80
2018-06-24T08:22:17.925Z,21.30
2018-06-24T08:24:47.235Z,21.70
2018-06-24T08:27:16.570Z,22.10
2018-06-24T08:29:45.894Z,22.10
2018-06-24T08:32:15.244Z,22.50
2018-06-24T08:34:44.548Z,22.30
2018-06-24T08:37:13.883Z,22.20
2018-06-24T08:42:12.116Z,22.20
2018-06-24T08:44:41.775Z,22.20
2018-06-24T08:47:11.171Z,22.80
2018-06-24T08:49:40.596Z,23.00
2018-06-24T08:52:09.938Z,23.40
2018-06-24T08:54:39.293Z,23.30
2018-06-24T08:57:08.672Z,23.20
2018-06-24T08:59:38.073Z,23.40
2018-06-24T09:02:07.437Z,22.20
2018-06-24T09:04:36.829Z,21.70
2018-06-24T09:07:06.219Z,21.40
2018-06-24T09:09:35.626Z,21.00
2018-06-24T09:12:04.971Z,20.70
2018-06-24T09:14:34.351Z,20.20
2018-06-24T09:17:03.707Z,19.90
2018-06-24T09:19:33.072Z,19.40
2018-06-24T09:24:31.379Z,18.90
2018-06-24T09:27:00.731Z,19.10
2018-06-24T09:29:30.112Z,19.30
2018-06-24T09:31:59.600Z,19.20
2018-06-24T09:34:29.026Z,18.90
2018-06-24T09:36:58.377Z,18.80
2018-06-24T09:39:27.772Z,19.00
2018-06-24T09:41:57.128Z,19.30
2018-06-24T09:44:26.484Z,19.70
2018-06-24T09:46:55.871Z,20.10
2018-06-24T09:49:25.239Z,20.60
2018-06-24T09:51:54.600Z,20.90
2018-06-24T09:54:23.968Z,21.30
2018-06-24T09:56:53.343Z,21.50
2018-06-24T09:59:22.881Z,21.10
2018-06-24T10:01:52.185Z,21.60
2018-06-24T10:04:21.528Z,22.10
2018-06-24T10:06:50.914Z,21.90
2018-06-24T10:09:20.251Z,21.70
2018-06-24T10:11:49.716Z,21.50
2018-06-24T10:14:19.022Z,22.20
2018-06-24T10:16:48.408Z,23.00
2018-06-24T10:19:17.731Z,23.00
2018-06-24T10:21:47.108Z,22.40
2018-06-24T10:24:16.413Z,21.80
2018-06-24T10:26:45.753Z,21.90
2018-06-24T10:29:15.069Z,21.80
2018-06-24T10:31:44.466Z,21.70
2018-06-24T10:34:13.797Z,21.50
2018-06-24T10:39:12.670Z,21.50
2018-06-24T10:41:42.056Z,20.60
2018-06-24T10:44:11.366Z,20.40
2018-06-24T10:46:40.747Z,20.60
2018-06-24T10:49:10.073Z,20.90
2018-06-24T10:51:39.433Z,20.80
2018-06-24T10:54:08.748Z,21.30
2018-06-24T10:56:38.527Z,22.00
2018-06-24T10:59:07.868Z,23.30
2018-06-24T11:01:37.284Z,24.20
2018-06-24T11:04:06.656Z,24.30
2018-06-24T11:06:36.096Z,23.80
2018-06-24T11:11:36.013Z,23.40
2018-06-24T11:14:05.569Z,23.30
2018-06-24T11:16:35.254Z,22.50
2018-06-24T11:19:04.599Z,22.40
2018-06-24T11:21:34.033Z,22.20
2018-06-24T11:24:03.464Z,21.70
2018-06-24T11:26:32.840Z,21.30
2018-06-24T11:29:02.611Z,20.90
2018-06-24T11:31:31.963Z,20.70
2018-06-24T11:34:01.328Z,20.20
2018-06-24T11:36:30.684Z,19.80
2018-06-24T11:39:00.046Z,19.90
2018-06-24T11:41:29.539Z,20.00
2018-06-24T11:43:58.888Z,19.50
2018-06-24T11:46:28.445Z,19.90
2018-06-24T11:48:57.844Z,20.00
2018-06-24T11:51:27.225Z,19.80
2018-06-24T11:53:56.979Z,19.80
2018-06-24T11:56:26.382Z,20.10
2018-06-24T11:58:55.755Z,19.80
2018-06-24T12:01:25.088Z,19.80
2018-06-24T12:03:54.474Z,19.60
2018-06-24T12:06:23.839Z,19.50
2018-06-24T12:08:53.230Z,19.60
2018-06-24T12:11:22.560Z,19.70
2018-06-24T12:13:51.920Z,19.50
2018-06-24T12:16:21.267Z,19.70
2018-06-24T12:18:50.619Z,19.70
2018-06-24T12:21:19.975Z,20.20
2018-06-24T12:23:49.333Z,20.60
2018-06-24T12:26:19.039Z,21.00
2018-06-24T12:28:48.403Z,21.20
2018-06-24T12:31:17.775Z,21.30
2018-06-24T12:33:47.140Z,21.10
2018-06-24T12:36:16.492Z,21.20
2018-06-24T12:38:46.277Z,21.30
2018-06-24T12:41:15.624Z,21.70
2018-06-24T12:43:44.985Z,22.70
2018-06-24T12:46:14.346Z,23.90
2018-06-24T12:48:43.984Z,23.80
2018-06-24T12:51:13.319Z,23.60
2018-06-24T12:53:42.643Z,23.20
2018-06-24T12:56:12.017Z,23.20
2018-06-24T13:01:10.377Z,22.20
2018-06-24T13:03:39.712Z,21.80
2018-06-24T13:06:09.103Z,21.70
2018-06-24T13:08:38.444Z,21.90
2018-06-24T13:11:08.224Z,22.00
2018-06-24T13:13:37.579Z,22.20
2018-06-24T13:16:06.903Z,22.50
2018-06-24T13:18:36.540Z,22.80
2018-06-24T13:21:06.441Z,22.40
2018-06-24T13:23:35.816Z,21.90
2018-06-24T13:26:05.178Z,21.90
2018-06-24T13:28:34.499Z,22.40
2018-06-24T13:31:03.895Z,22.00
2018-06-24T13:33:33.251Z,21.90
2018-06-24T13:36:02.623Z,21.70
2018-06-24T13:38:31.939Z,21.50
2018-06-24T13:41:01.277Z,21.10
2018-06-24T13:43:30.616Z,21.00
2018-06-24T13:48:28.852Z,21.00
2018-06-24T13:50:58.188Z,21.20
2018-06-24T13:53:27.524Z,21.30
2018-06-24T13:55:56.919Z,21.20
2018-06-24T13:58:26.264Z,21.10
2018-06-24T14:00:55.614Z,20.90
2018-06-24T14:03:24.963Z,20.70
2018-06-24T14:05:54.416Z,21.00
2018-06-24T14:08:23.766Z,21.10
2018-06-24T14:10:53.135Z,21.40
2018-06-24T14:13:22.503Z,21.70
2018-06-24T14:15:51.948Z,21.80
2018-06-24T14:18:21.324Z,21.70
2018-06-24T14:20:50.659Z,21.50
2018-06-24T14:23:20.117Z,21.40
2018-06-24T14:25:49.450Z,21.60
2018-06-24T14:28:18.899Z,21.50
2018-06-24T14:30:48.263Z,21.50
2018-06-24T14:33:17.694Z,21.60
2018-06-24T14:35:47.039Z,21.70
2018-06-24T14:38:16.413Z,21.70
2018-06-24T14:40:45.739Z,21.70
2018-06-24T14:43:15.119Z,21.70
2018-06-24T14:48:13.407Z,21.70
2018-06-24T14:50:42.756Z,22.00
2018-06-24T14:53:12.135Z,22.10
2018-06-24T14:55:41.566Z,22.10
2018-06-24T14:58:10.948Z,22.00
2018-06-24T15:00:40.303Z,21.50
2018-06-24T15:05:38.610Z,21.50
2018-06-24T15:08:08.016Z,21.50
2018-06-24T15:10:37.395Z,21.20
2018-06-24T15:13:06.772Z,21.30
2018-06-24T15:15:36.168Z,21.40
2018-06-24T15:18:05.503Z,21.40
2018-06-24T15:20:35.047Z,21.30
2018-06-24T15:23:04.393Z,21.60
2018-06-24T15:25:33.759Z,21.60
2018-06-24T15:28:03.091Z,21.00
2018-06-24T15:30:32.471Z,21.10
2018-06-24T15:33:01.907Z,21.00
2018-06-24T15:35:31.307Z,20.80
2018-06-24T15:38:00.647Z,21.00
2018-06-24T15:40:30.053Z,21.00
2018-06-24T15:42:59.403Z,21.00
2018-06-24T15:45:28.789Z,20.80
2018-06-24T15:47:58.124Z,20.90
2018-06-24T15:50:27.571Z,20.80
2018-06-24T15:52:57.010Z,20.80
2018-06-24T15:55:26.372Z,20.60
2018-06-24T15:57:55.783Z,20.50
2018-06-24T16:00:25.147Z,20.40
2018-06-24T16:02:54.483Z,20.30
2018-06-24T16:05:23.928Z,20.10
2018-06-24T16:07:53.284Z,20.10
2018-06-24T16:10:22.694Z,20.10
2018-06-24T16:12:52.020Z,20.10
2018-06-24T16:15:21.386Z,20.00
2018-06-24T16:17:51.151Z,20.00
2018-06-24T16:20:20.116Z,20.00
2018-06-24T16:22:50.373Z,19.90
2018-06-24T16:25:19.700Z,20.00
2018-06-24T16:27:49.082Z,19.90
2018-06-24T16:30:18.411Z,19.90
2018-06-24T16:32:47.803Z,19.80
2018-06-24T16:35:17.132Z,19.60
2018-06-24T16:37:46.517Z,19.60
2018-06-24T16:40:15.936Z,19.50
2018-06-24T16:45:14.262Z,19.40
2018-06-24T16:47:43.667Z,19.40
2018-06-24T16:50:13.019Z,19.30
2018-06-24T16:52:42.393Z,19.30
2018-06-24T16:55:11.721Z,19.30
2018-06-24T17:00:10.011Z,19.40
2018-06-24T17:02:39.431Z,19.50
2018-06-24T17:05:08.819Z,19.60
2018-06-24T17:07:38.183Z,19.50
2018-06-24T17:10:07.515Z,19.50
2018-06-24T17:12:36.894Z,19.50
2018-06-24T17:15:06.204Z,19.60
2018-06-24T17:17:35.560Z,19.50
2018-06-24T17:20:04.897Z,19.40
2018-06-24T17:22:36.512Z,19.50
2018-06-24T17:25:05.823Z,19.60
2018-06-24T17:27:35.227Z,19.50
2018-06-24T17:30:05.014Z,19.50
2018-06-24T17:32:34.394Z,19.50
2018-06-24T17:35:03.783Z,19.40
2018-06-24T17:40:02.080Z,19.20
2018-06-24T17:42:31.827Z,19.20
2018-06-24T17:45:01.188Z,19.10
2018-06-24T17:47:30.635Z,19.00
2018-06-24T17:49:59.993Z,19.00
2018-06-24T17:52:30.468Z,18.90
2018-06-24T17:54:59.819Z,18.90
2018-06-24T17:57:29.153Z,18.90
2018-06-24T17:59:58.544Z,19.00
2018-06-24T18:02:27.891Z,18.80
2018-06-24T18:04:57.287Z,18.80
2018-06-24T18:07:26.620Z,18.70
2018-06-24T18:09:56.046Z,18.70
2018-06-24T18:12:25.390Z,18.60
2018-06-24T18:14:54.803Z,18.60
2018-06-24T18:17:24.193Z,18.60
2018-06-24T18:19:53.555Z,18.60
2018-06-24T18:22:23.012Z,18.50
2018-06-24T18:29:50.143Z,18.50
2018-06-24T18:32:19.566Z,18.40
2018-06-24T18:34:48.897Z,18.50
2018-06-24T18:37:18.213Z,18.40
2018-06-24T18:39:47.614Z,18.30
2018-06-24T18:42:17.006Z,18.30
2018-06-24T18:44:46.450Z,18.30
2018-06-24T18:47:16.172Z,18.10
2018-06-24T18:49:45.504Z,18.10
2018-06-24T18:52:14.908Z,18.10
2018-06-24T18:54:44.245Z,18.00
2018-06-24T18:57:13.643Z,18.10
2018-06-24T18:59:42.986Z,18.00
2018-06-24T19:02:12.447Z,18.00
2018-06-24T19:04:41.748Z,18.00
2018-06-24T19:07:11.259Z,17.90
2018-06-24T19:09:40.545Z,18.00
2018-06-24T19:12:09.932Z,17.80
2018-06-24T19:14:39.332Z,17.90
2018-06-24T19:17:08.692Z,17.80
2018-06-24T19:19:38.028Z,17.80
2018-06-24T19:22:07.389Z,17.80
2018-06-24T19:24:36.779Z,17.70
2018-06-24T19:27:06.330Z,17.70
2018-06-24T19:32:04.666Z,17.60
2018-06-24T19:34:34.023Z,17.60
2018-06-24T19:37:03.429Z,17.60
2018-06-24T19:39:32.826Z,17.60
2018-06-24T19:42:02.210Z,17.50
2018-06-24T19:44:31.562Z,17.50
2018-06-24T19:47:00.964Z,17.40
2018-06-24T19:49:30.306Z,17.40
2018-06-24T19:51:59.655Z,17.40
2018-06-24T19:54:29.019Z,17.40
2018-06-24T19:56:58.376Z,17.30
2018-06-24T19:59:27.728Z,17.40
2018-06-24T20:01:57.088Z,17.30
2018-06-24T20:04:26.478Z,17.20
2018-06-24T20:06:56.411Z,17.10
2018-06-24T20:09:25.877Z,17.10
2018-06-24T20:11:55.142Z,17.00
2018-06-24T20:14:24.497Z,16.90
2018-06-24T20:16:53.882Z,16.80
2018-06-24T20:19:23.272Z,16.70
2018-06-24T20:21:52.743Z,16.60
2018-06-24T20:24:22.173Z,16.60
2018-06-24T20:26:51.539Z,16.80
2018-06-24T20:29:20.895Z,16.80
2018-06-24T20:31:50.230Z,16.50
2018-06-24T20:34:19.596Z,16.50
2018-06-24T20:36:48.984Z,16.60
2018-06-24T20:39:18.372Z,16.50
2018-06-24T20:41:47.932Z,16.50
2018-06-24T20:44:17.296Z,16.60
2018-06-24T20:46:46.648Z,16.60
2018-06-24T20:49:15.988Z,16.60
2018-06-24T20:51:45.355Z,16.60
2018-06-24T20:54:14.719Z,16.70
2018-06-24T20:56:44.072Z,16.70
2018-06-24T20:59:13.744Z,16.70
2018-06-24T21:01:43.144Z,16.70
2018-06-24T21:04:12.583Z,16.70
2018-06-24T21:06:42.032Z,16.60
2018-06-24T21:09:12.154Z,16.30
2018-06-24T21:11:41.626Z,16.30
2018-06-24T21:14:11.014Z,16.30
2018-06-24T21:16:40.450Z,16.30
2018-06-24T21:19:09.866Z,16.20
2018-06-24T21:21:39.726Z,16.30
2018-06-24T21:26:38.472Z,16.30
2018-06-24T21:29:08.300Z,16.40
2018-06-24T21:31:37.688Z,16.30
2018-06-24T21:34:07.272Z,16.20
2018-06-24T21:36:36.665Z,16.30
2018-06-24T21:39:08.316Z,16.40
2018-06-24T21:41:37.841Z,16.40
2018-06-24T21:44:07.170Z,16.40
2018-06-24T21:46:36.603Z,16.40
2018-06-24T21:49:06.007Z,16.40
2018-06-24T21:51:35.723Z,16.40
2018-06-24T21:54:05.376Z,16.20
2018-06-24T21:59:03.695Z,16.30
2018-06-24T22:01:33.108Z,16.30
2018-06-24T22:04:02.507Z,16.30
2018-06-24T22:06:31.949Z,16.30
2018-06-24T22:09:01.308Z,16.30
2018-06-24T22:11:30.737Z,16.30
2018-06-24T22:14:00.100Z,16.30
2018-06-24T22:16:29.568Z,16.20
2018-06-24T22:18:58.924Z,16.20
2018-06-24T22:21:28.503Z,16.10
2018-06-24T22:23:57.867Z,16.20
2018-06-24T22:26:27.256Z,16.10
2018-06-24T22:28:56.649Z,15.90
2018-06-24T22:31:26.072Z,16.00
2018-06-24T22:33:55.443Z,15.90
2018-06-24T22:36:24.820Z,15.90
2018-06-24T22:41:23.296Z,16.00
2018-06-24T22:43:52.736Z,16.00
2018-06-24T22:48:51.396Z,16.00
2018-06-24T22:51:20.796Z,16.00
2018-06-24T22:53:50.174Z,15.90
2018-06-24T22:56:19.599Z,15.90
2018-06-24T22:58:59.951Z,15.80
2018-06-24T23:01:29.375Z,15.70
2018-06-24T23:03:58.807Z,15.70
2018-06-24T23:06:28.631Z,15.70
2018-06-24T23:08:58.468Z,15.70
2018-06-24T23:11:27.806Z,15.80
2018-06-24T23:13:57.148Z,15.70
2018-06-24T23:16:26.488Z,15.80
2018-06-24T23:18:55.928Z,15.70
2018-06-24T23:21:25.269Z,15.70
2018-06-24T23:23:54.638Z,15.60
2018-06-24T23:26:23.980Z,15.50
2018-06-24T23:28:53.343Z,15.50
2018-06-24T23:31:22.680Z,15.50
2018-06-24T23:33:52.008Z,15.50
2018-06-24T23:36:21.349Z,15.50
2018-06-24T23:38:50.743Z,15.60
2018-06-24T23:41:20.055Z,15.60
2018-06-24T23:43:49.379Z,15.50
2018-06-24T23:46:18.759Z,15.50
2018-06-24T23:48:48.095Z,15.50
2018-06-24T23:51:17.472Z,15.50
2018-06-24T23:53:46.815Z,15.40
2018-06-24T23:56:16.978Z,15.40
2018-06-24T23:58:46.399Z,15.40
